sensor_id;sensor_type;location;lat;lon;timestamp;pressure;altitude;pressure_sealevel;temperature;humidity
77299;BME280;66361;52.034;20.656;2023-08-06T06:07:51;98118.66;;;22.63;100.00
77299;BME280;66361;52.034;20.656;2023-08-06T06:11:54;98113.34;;;23.47;92.42
77299;BME280;66361;52.034;20.656;2023-08-06T06:15:57;98114.06;;;23.06;95.12
77299;BME280;66361;52.034;20.656;2023-08-06T06:20:00;98107.97;;;22.75;97.04
77299;BME280;66361;52.034;20.656;2023-08-06T06:24:07;98104.13;;;22.71;95.98
77299;BME280;66361;52.034;20.656;2023-08-06T06:28:10;98090.72;;;23.37;94.85
77299;BME280;66361;52.034;20.656;2023-08-06T06:32:13;98081.91;;;23.89;90.02
77299;BME280;66361;52.034;20.656;2023-08-06T06:36:16;98078.44;;;24.35;82.86
77299;BME280;66361;52.034;20.656;2023-08-06T06:40:21;98086.66;;;24.52;80.78
77299;BME280;66361;52.034;20.656;2023-08-06T06:44:25;98080.84;;;24.13;87.54
77299;BME280;66361;52.034;20.656;2023-08-06T06:48:28;98076.66;;;24.41;85.82
77299;BME280;66361;52.034;20.656;2023-08-06T06:52:31;98069.63;;;24.63;83.32
77299;BME280;66361;52.034;20.656;2023-08-06T06:56:35;98083.19;;;25.43;79.99
77299;BME280;66361;52.034;20.656;2023-08-06T07:00:38;98068.44;;;27.01;71.95
77299;BME280;66361;52.034;20.656;2023-08-06T07:04:42;98074.56;;;26.19;73.82
77299;BME280;66361;52.034;20.656;2023-08-06T07:08:45;98088.25;;;26.29;76.76
77299;BME280;66361;52.034;20.656;2023-08-06T07:12:50;98083.75;;;29.50;65.51
77299;BME280;66361;52.034;20.656;2023-08-06T07:16:54;98079.28;;;29.13;65.87
77299;BME280;66361;52.034;20.656;2023-08-06T07:20:58;98081.59;;;29.52;61.20
77299;BME280;66361;52.034;20.656;2023-08-06T07:25:01;98079.06;;;28.36;63.00
77299;BME280;66361;52.034;20.656;2023-08-06T07:29:06;98075.56;;;27.07;68.95
77299;BME280;66361;52.034;20.656;2023-08-06T07:33:08;98071.34;;;27.37;70.53
77299;BME280;66361;52.034;20.656;2023-08-06T07:37:11;98073.59;;;27.46;66.63
77299;BME280;66361;52.034;20.656;2023-08-06T07:41:15;98073.94;;;28.08;67.53
77299;BME280;66361;52.034;20.656;2023-08-06T07:45:19;98065.72;;;29.18;64.34
77299;BME280;66361;52.034;20.656;2023-08-06T07:49:23;98062.09;;;30.00;58.10
77299;BME280;66361;52.034;20.656;2023-08-06T07:53:26;98067.16;;;31.62;53.44
77299;BME280;66361;52.034;20.656;2023-08-06T07:57:31;98062.38;;;31.83;53.06
77299;BME280;66361;52.034;20.656;2023-08-06T08:01:36;98054.84;;;31.64;54.15
77299;BME280;66361;52.034;20.656;2023-08-06T08:05:39;98054.00;;;31.20;53.20
77299;BME280;66361;52.034;20.656;2023-08-06T08:09:43;98068.81;;;30.99;54.74
77299;BME280;66361;52.034;20.656;2023-08-06T08:13:46;98063.69;;;30.67;57.54
77299;BME280;66361;52.034;20.656;2023-08-06T08:17:50;98065.84;;;31.54;55.15
77299;BME280;66361;52.034;20.656;2023-08-06T08:21:54;98069.41;;;32.28;53.04
77299;BME280;66361;52.034;20.656;2023-08-06T08:25:57;98059.28;;;31.99;51.04
77299;BME280;66361;52.034;20.656;2023-08-06T08:30:01;98063.88;;;31.06;54.03
77299;BME280;66361;52.034;20.656;2023-08-06T08:34:05;98045.69;;;31.50;53.73
77299;BME280;66361;52.034;20.656;2023-08-06T08:38:08;98041.38;;;32.46;53.86
77299;BME280;66361;52.034;20.656;2023-08-06T08:42:12;98038.22;;;33.52;52.81
77299;BME280;66361;52.034;20.656;2023-08-06T08:46:20;98040.28;;;34.90;46.34
77299;BME280;66361;52.034;20.656;2023-08-06T08:50:25;98032.56;;;33.68;47.16
77299;BME280;66361;52.034;20.656;2023-08-06T08:54:28;98035.69;;;33.61;47.59
77299;BME280;66361;52.034;20.656;2023-08-06T08:58:33;98032.16;;;33.55;47.85
77299;BME280;66361;52.034;20.656;2023-08-06T09:02:41;98025.50;;;33.24;47.32
77299;BME280;66361;52.034;20.656;2023-08-06T09:06:50;98010.69;;;32.30;50.90
77299;BME280;66361;52.034;20.656;2023-08-06T09:10:54;98017.03;;;30.99;55.25
77299;BME280;66361;52.034;20.656;2023-08-06T09:14:58;97996.66;;;30.91;55.17
77299;BME280;66361;52.034;20.656;2023-08-06T09:19:07;98001.84;;;31.37;54.29
77299;BME280;66361;52.034;20.656;2023-08-06T09:23:12;98003.53;;;33.48;51.35
77299;BME280;66361;52.034;20.656;2023-08-06T09:27:16;97999.59;;;34.83;45.74
77299;BME280;66361;52.034;20.656;2023-08-06T09:31:20;97996.31;;;33.57;48.55
77299;BME280;66361;52.034;20.656;2023-08-06T09:35:23;97982.78;;;33.84;51.38
77299;BME280;66361;52.034;20.656;2023-08-06T09:39:29;97976.22;;;34.59;48.11
77299;BME280;66361;52.034;20.656;2023-08-06T09:43:39;97973.19;;;32.41;50.76
77299;BME280;66361;52.034;20.656;2023-08-06T09:47:43;97978.41;;;32.08;53.67
77299;BME280;66361;52.034;20.656;2023-08-06T09:51:50;97972.31;;;31.05;55.77
77299;BME280;66361;52.034;20.656;2023-08-06T09:55:59;97973.03;;;31.26;56.24
77299;BME280;66361;52.034;20.656;2023-08-06T10:00:03;97956.25;;;32.15;55.21
77299;BME280;66361;52.034;20.656;2023-08-06T10:04:06;97955.00;;;31.97;54.24
77299;BME280;66361;52.034;20.656;2023-08-06T10:08:24;97942.78;;;31.61;54.92
77299;BME280;66361;52.034;20.656;2023-08-06T10:12:34;97935.97;;;32.21;53.14
77299;BME280;66361;52.034;20.656;2023-08-06T10:16:38;97923.41;;;32.91;50.91
77299;BME280;66361;52.034;20.656;2023-08-06T10:20:43;97918.63;;;32.36;49.93
77299;BME280;66361;52.034;20.656;2023-08-06T10:24:50;97913.34;;;31.19;53.88
77299;BME280;66361;52.034;20.656;2023-08-06T10:28:55;97918.75;;;29.80;58.43
77299;BME280;66361;52.034;20.656;2023-08-06T10:33:00;97921.19;;;29.47;60.63
77299;BME280;66361;52.034;20.656;2023-08-06T10:37:03;97925.97;;;28.94;65.22
77299;BME280;66361;52.034;20.656;2023-08-06T10:41:06;97904.47;;;30.49;61.94
77299;BME280;66361;52.034;20.656;2023-08-06T10:45:15;97915.50;;;31.66;54.32
77299;BME280;66361;52.034;20.656;2023-08-06T10:49:18;97907.25;;;32.52;57.39
77299;BME280;66361;52.034;20.656;2023-08-06T10:53:21;97899.84;;;32.05;54.81
77299;BME280;66361;52.034;20.656;2023-08-06T10:57:25;97895.09;;;31.87;53.50
77299;BME280;66361;52.034;20.656;2023-08-06T11:01:29;97891.25;;;31.26;54.94
77299;BME280;66361;52.034;20.656;2023-08-06T11:05:33;97869.72;;;30.80;55.65
77299;BME280;66361;52.034;20.656;2023-08-06T11:09:37;97860.03;;;31.08;56.97
77299;BME280;66361;52.034;20.656;2023-08-06T11:13:40;97862.56;;;31.33;53.42
77299;BME280;66361;52.034;20.656;2023-08-06T11:17:45;97861.16;;;31.02;55.32
77299;BME280;66361;52.034;20.656;2023-08-06T11:21:49;97852.34;;;31.15;52.57
77299;BME280;66361;52.034;20.656;2023-08-06T11:25:54;97844.81;;;31.02;52.26
77299;BME280;66361;52.034;20.656;2023-08-06T11:29:57;97832.25;;;31.06;52.99
77299;BME280;66361;52.034;20.656;2023-08-06T11:34:02;97815.78;;;30.82;53.11
77299;BME280;66361;52.034;20.656;2023-08-06T11:38:05;97811.34;;;30.96;51.96
77299;BME280;66361;52.034;20.656;2023-08-06T11:42:08;97802.16;;;30.82;51.47
77299;BME280;66361;52.034;20.656;2023-08-06T11:46:12;97804.78;;;31.02;50.94
77299;BME280;66361;52.034;20.656;2023-08-06T11:50:23;97793.06;;;31.31;50.27
77299;BME280;66361;52.034;20.656;2023-08-06T11:54:31;97764.00;;;31.21;48.66
77299;BME280;66361;52.034;20.656;2023-08-06T11:58:35;97754.66;;;30.98;49.77
77299;BME280;66361;52.034;20.656;2023-08-06T12:02:39;97775.25;;;30.32;50.25
77299;BME280;66361;52.034;20.656;2023-08-06T12:06:44;97782.81;;;29.65;53.31
77299;BME280;66361;52.034;20.656;2023-08-06T12:10:47;97781.22;;;29.39;52.59
77299;BME280;66361;52.034;20.656;2023-08-06T12:14:52;97771.72;;;29.06;54.21
77299;BME280;66361;52.034;20.656;2023-08-06T12:18:54;97783.66;;;28.55;58.55
77299;BME280;66361;52.034;20.656;2023-08-06T12:22:59;97773.78;;;28.23;60.09
77299;BME280;66361;52.034;20.656;2023-08-06T12:27:02;97825.50;;;27.60;65.49
77299;BME280;66361;52.034;20.656;2023-08-06T12:31:05;97869.22;;;26.78;65.03
77299;BME280;66361;52.034;20.656;2023-08-06T12:35:09;97844.19;;;25.45;70.57
77299;BME280;66361;52.034;20.656;2023-08-06T12:39:13;97860.50;;;24.72;76.03
77299;BME280;66361;52.034;20.656;2023-08-06T12:43:16;97848.47;;;24.23;79.76
77299;BME280;66361;52.034;20.656;2023-08-06T12:47:19;97832.47;;;24.05;85.79
77299;BME280;66361;52.034;20.656;2023-08-06T12:51:23;97815.53;;;24.78;85.96
77299;BME280;66361;52.034;20.656;2023-08-06T12:55:27;97818.38;;;25.71;82.71
77299;BME280;66361;52.034;20.656;2023-08-06T12:59:34;97802.59;;;26.01;81.02
77299;BME280;66361;52.034;20.656;2023-08-06T13:03:38;97788.44;;;26.43;83.69
77299;BME280;66361;52.034;20.656;2023-08-06T13:07:42;97784.84;;;26.86;79.48
77299;BME280;66361;52.034;20.656;2023-08-06T13:11:47;97775.69;;;27.24;70.90
77299;BME280;66361;52.034;20.656;2023-08-06T13:15:52;97758.63;;;26.91;71.32
77299;BME280;66361;52.034;20.656;2023-08-06T13:19:55;97772.09;;;26.55;71.59
77299;BME280;66361;52.034;20.656;2023-08-06T13:24:00;97770.13;;;26.72;71.71
77299;BME280;66361;52.034;20.656;2023-08-06T13:28:05;97768.56;;;26.81;70.58
77299;BME280;66361;52.034;20.656;2023-08-06T13:32:08;97767.78;;;26.85;69.51
77299;BME280;66361;52.034;20.656;2023-08-06T13:36:14;97784.31;;;26.89;71.79
77299;BME280;66361;52.034;20.656;2023-08-06T13:40:17;97800.34;;;26.95;72.26
77299;BME280;66361;52.034;20.656;2023-08-06T13:44:22;97796.53;;;26.65;70.02
77299;BME280;66361;52.034;20.656;2023-08-06T13:48:25;97807.09;;;26.39;72.07
77299;BME280;66361;52.034;20.656;2023-08-06T13:52:29;97809.44;;;25.87;78.27
77299;BME280;66361;52.034;20.656;2023-08-06T13:56:35;97821.19;;;25.60;78.82
77299;BME280;66361;52.034;20.656;2023-08-06T14:00:41;97874.09;;;25.39;79.11
77299;BME280;66361;52.034;20.656;2023-08-06T14:04:44;97846.81;;;25.57;74.62
77299;BME280;66361;52.034;20.656;2023-08-06T14:08:48;97858.97;;;25.76;71.36
77299;BME280;66361;52.034;20.656;2023-08-06T14:12:52;97862.44;;;26.10;71.74
77299;BME280;66361;52.034;20.656;2023-08-06T14:17:14;97870.28;;;25.90;71.96
77299;BME280;66361;52.034;20.656;2023-08-06T14:21:18;97864.41;;;25.93;71.65
77299;BME280;66361;52.034;20.656;2023-08-06T14:25:21;97866.94;;;25.66;75.48
77299;BME280;66361;52.034;20.656;2023-08-06T14:29:25;97887.16;;;25.64;74.26
77299;BME280;66361;52.034;20.656;2023-08-06T14:33:30;97877.66;;;25.61;73.06
77299;BME280;66361;52.034;20.656;2023-08-06T14:37:33;97889.31;;;25.62;70.95
77299;BME280;66361;52.034;20.656;2023-08-06T14:41:39;97901.56;;;25.69;67.89
77299;BME280;66361;52.034;20.656;2023-08-06T14:45:42;97923.78;;;25.88;70.05
77299;BME280;66361;52.034;20.656;2023-08-06T14:49:47;97931.13;;;25.76;67.41
77299;BME280;66361;52.034;20.656;2023-08-06T14:53:51;97930.72;;;25.67;65.58
77299;BME280;66361;52.034;20.656;2023-08-06T14:57:55;97922.44;;;25.74;65.15
77299;BME280;66361;52.034;20.656;2023-08-06T15:01:58;97915.22;;;25.79;64.76
77299;BME280;66361;52.034;20.656;2023-08-06T15:06:03;97918.09;;;25.73;65.58
77299;BME280;66361;52.034;20.656;2023-08-06T15:10:07;97930.25;;;25.70;68.06
77299;BME280;66361;52.034;20.656;2023-08-06T15:14:13;97920.50;;;25.69;65.36
77299;BME280;66361;52.034;20.656;2023-08-06T15:18:19;97935.28;;;25.83;64.53
77299;BME280;66361;52.034;20.656;2023-08-06T15:22:27;97920.31;;;25.76;66.58
77299;BME280;66361;52.034;20.656;2023-08-06T15:26:33;97930.94;;;25.82;64.74
77299;BME280;66361;52.034;20.656;2023-08-06T15:30:36;97930.88;;;25.61;63.49
77299;BME280;66361;52.034;20.656;2023-08-06T15:34:41;97932.03;;;25.48;66.03
77299;BME280;66361;52.034;20.656;2023-08-06T15:38:45;97951.66;;;25.27;62.77
77299;BME280;66361;52.034;20.656;2023-08-06T15:42:49;97959.75;;;24.98;64.34
77299;BME280;66361;52.034;20.656;2023-08-06T15:46:52;97953.56;;;24.86;66.12
77299;BME280;66361;52.034;20.656;2023-08-06T15:50:56;97958.69;;;24.59;66.51
77299;BME280;66361;52.034;20.656;2023-08-06T15:55:01;97942.53;;;24.59;67.22
77299;BME280;66361;52.034;20.656;2023-08-06T15:59:24;97956.84;;;24.60;67.86
77299;BME280;66361;52.034;20.656;2023-08-06T16:03:27;97959.44;;;24.32;67.50
77299;BME280;66361;52.034;20.656;2023-08-06T16:07:30;97969.28;;;24.38;68.64
77299;BME280;66361;52.034;20.656;2023-08-06T16:11:34;97972.69;;;24.33;69.18
77299;BME280;66361;52.034;20.656;2023-08-06T16:15:38;97961.44;;;24.25;68.59
77299;BME280;66361;52.034;20.656;2023-08-06T16:19:41;97961.00;;;23.93;70.72
77299;BME280;66361;52.034;20.656;2023-08-06T16:23:44;97953.13;;;23.80;70.96
77299;BME280;66361;52.034;20.656;2023-08-06T16:27:51;97972.53;;;23.58;71.57
77299;BME280;66361;52.034;20.656;2023-08-06T16:31:56;97964.91;;;23.44;72.61
77299;BME280;66361;52.034;20.656;2023-08-06T16:36:01;97976.25;;;23.46;72.50
77299;BME280;66361;52.034;20.656;2023-08-06T16:40:06;97976.47;;;23.03;75.06
77299;BME280;66361;52.034;20.656;2023-08-06T16:44:12;97987.91;;;22.98;75.26
77299;BME280;66361;52.034;20.656;2023-08-06T16:48:15;98003.78;;;22.70;76.02
77299;BME280;66361;52.034;20.656;2023-08-06T16:52:18;98005.34;;;22.41;75.95
77299;BME280;66361;52.034;20.656;2023-08-06T16:56:21;98014.22;;;21.99;78.52
77299;BME280;66361;52.034;20.656;2023-08-06T17:00:28;98034.78;;;21.87;79.15
77299;BME280;66361;52.034;20.656;2023-08-06T17:04:31;98024.00;;;21.68;78.69
77299;BME280;66361;52.034;20.656;2023-08-06T17:08:34;98013.31;;;21.31;80.38
77299;BME280;66361;52.034;20.656;2023-08-06T17:12:38;98025.03;;;20.92;82.80
77299;BME280;66361;52.034;20.656;2023-08-06T17:16:43;98041.59;;;20.82;82.09
77299;BME280;66361;52.034;20.656;2023-08-06T17:20:47;98046.38;;;20.67;82.43
77299;BME280;66361;52.034;20.656;2023-08-06T17:24:50;98036.75;;;20.46;82.57
77299;BME280;66361;52.034;20.656;2023-08-06T17:28:56;98024.22;;;20.27;83.40
77299;BME280;66361;52.034;20.656;2023-08-06T17:33:00;98042.56;;;20.17;84.48
77299;BME280;66361;52.034;20.656;2023-08-06T17:37:04;98048.34;;;19.94;85.84
77299;BME280;66361;52.034;20.656;2023-08-06T17:41:07;98057.59;;;19.65;87.78
77299;BME280;66361;52.034;20.656;2023-08-06T17:45:10;98044.19;;;19.52;87.02
77299;BME280;66361;52.034;20.656;2023-08-06T17:49:15;98045.97;;;19.19;86.58
77299;BME280;66361;52.034;20.656;2023-08-06T17:53:18;98038.69;;;18.93;86.66
77299;BME280;66361;52.034;20.656;2023-08-06T17:57:21;98058.78;;;18.76;86.50
77299;BME280;66361;52.034;20.656;2023-08-06T18:01:24;98061.50;;;18.55;88.58
77299;BME280;66361;52.034;20.656;2023-08-06T18:05:29;98073.16;;;18.47;89.98
77299;BME280;66361;52.034;20.656;2023-08-06T18:09:34;98093.47;;;18.42;90.20
77299;BME280;66361;52.034;20.656;2023-08-06T18:13:37;98094.47;;;18.34;90.96
77299;BME280;66361;52.034;20.656;2023-08-06T18:17:42;98097.50;;;18.24;91.07
77299;BME280;66361;52.034;20.656;2023-08-06T18:21:48;98084.28;;;18.16;90.85
77299;BME280;66361;52.034;20.656;2023-08-06T18:25:51;98084.75;;;17.99;92.84
77299;BME280;66361;52.034;20.656;2023-08-06T18:29:57;98073.19;;;17.91;93.49
77299;BME280;66361;52.034;20.656;2023-08-06T18:34:00;98074.16;;;17.84;93.37
77299;BME280;66361;52.034;20.656;2023-08-06T18:38:04;98098.16;;;17.84;92.88
77299;BME280;66361;52.034;20.656;2023-08-06T18:42:08;98109.47;;;17.65;93.63
77299;BME280;66361;52.034;20.656;2023-08-06T18:46:12;98099.50;;;17.52;95.83
77299;BME280;66361;52.034;20.656;2023-08-06T18:50:16;98089.31;;;17.41;94.41
77299;BME280;66361;52.034;20.656;2023-08-06T18:54:23;98095.03;;;17.38;95.45
77299;BME280;66361;52.034;20.656;2023-08-06T18:58:27;98098.06;;;17.35;93.98
77299;BME280;66361;52.034;20.656;2023-08-06T19:02:33;98100.38;;;17.38;93.47
77299;BME280;66361;52.034;20.656;2023-08-06T19:06:36;98098.16;;;17.41;94.12
77299;BME280;66361;52.034;20.656;2023-08-06T19:10:44;98096.66;;;17.39;94.07
77299;BME280;66361;52.034;20.656;2023-08-06T19:14:48;98079.41;;;17.35;96.28
77299;BME280;66361;52.034;20.656;2023-08-06T19:18:52;98078.94;;;17.31;94.33
77299;BME280;66361;52.034;20.656;2023-08-06T19:22:55;98085.78;;;17.34;93.85
77299;BME280;66361;52.034;20.656;2023-08-06T19:27:00;98092.81;;;17.41;92.94
77299;BME280;66361;52.034;20.656;2023-08-06T19:31:05;98080.06;;;17.37;92.92
77299;BME280;66361;52.034;20.656;2023-08-06T19:35:08;98085.19;;;17.38;92.46
77299;BME280;66361;52.034;20.656;2023-08-06T19:39:13;98091.53;;;17.37;93.31
77299;BME280;66361;52.034;20.656;2023-08-06T19:43:17;98096.50;;;17.40;93.41
77299;BME280;66361;52.034;20.656;2023-08-06T19:47:20;98095.59;;;17.33;93.66
77299;BME280;66361;52.034;20.656;2023-08-06T19:51:23;98101.94;;;17.32;94.77
77299;BME280;66361;52.034;20.656;2023-08-06T19:55:26;98089.13;;;17.42;92.88
77299;BME280;66361;52.034;20.656;2023-08-06T19:59:31;98086.38;;;17.36;94.17
77299;BME280;66361;52.034;20.656;2023-08-06T20:03:34;98080.88;;;17.37;93.72
77299;BME280;66361;52.034;20.656;2023-08-06T20:07:42;98067.34;;;17.18;94.94
77299;BME280;66361;52.034;20.656;2023-08-06T20:11:45;98076.94;;;17.33;93.65
77299;BME280;66361;52.034;20.656;2023-08-06T20:15:49;98081.00;;;17.29;94.23
77299;BME280;66361;52.034;20.656;2023-08-06T20:19:52;98082.50;;;17.17;95.44
77299;BME280;66361;52.034;20.656;2023-08-06T20:23:56;98077.81;;;17.19;95.21
77299;BME280;66361;52.034;20.656;2023-08-06T20:28:00;98067.88;;;17.13;95.81
77299;BME280;66361;52.034;20.656;2023-08-06T20:32:04;98068.66;;;17.07;95.46
77299;BME280;66361;52.034;20.656;2023-08-06T20:36:08;98072.88;;;17.02;95.43
77299;BME280;66361;52.034;20.656;2023-08-06T20:40:11;98081.53;;;17.04;95.34
77299;BME280;66361;52.034;20.656;2023-08-06T20:44:15;98085.31;;;16.94;95.94
77299;BME280;66361;52.034;20.656;2023-08-06T20:48:19;98099.47;;;16.95;94.60
77299;BME280;66361;52.034;20.656;2023-08-06T20:52:23;98098.38;;;16.89;95.37
77299;BME280;66361;52.034;20.656;2023-08-06T20:56:26;98088.34;;;16.91;93.62
77299;BME280;66361;52.034;20.656;2023-08-06T21:00:30;98085.22;;;16.88;94.95
77299;BME280;66361;52.034;20.656;2023-08-06T21:04:34;98085.84;;;16.90;94.75
77299;BME280;66361;52.034;20.656;2023-08-06T21:08:37;98081.34;;;16.90;96.60
77299;BME280;66361;52.034;20.656;2023-08-06T21:12:40;98100.56;;;16.86;96.02
77299;BME280;66361;52.034;20.656;2023-08-06T21:16:44;98102.59;;;16.84;96.92
77299;BME280;66361;52.034;20.656;2023-08-06T21:20:55;98109.94;;;16.67;99.87
77299;BME280;66361;52.034;20.656;2023-08-06T21:24:58;98118.97;;;16.52;100.00
77299;BME280;66361;52.034;20.656;2023-08-06T21:29:01;98120.19;;;16.41;100.00
77299;BME280;66361;52.034;20.656;2023-08-06T21:33:04;98130.84;;;16.41;100.00
77299;BME280;66361;52.034;20.656;2023-08-06T21:37:08;98131.38;;;16.22;100.00
77299;BME280;66361;52.034;20.656;2023-08-06T21:41:13;98134.50;;;16.11;100.00
77299;BME280;66361;52.034;20.656;2023-08-06T21:45:16;98148.03;;;16.01;100.00
77299;BME280;66361;52.034;20.656;2023-08-06T21:49:19;98149.59;;;15.95;100.00
77299;BME280;66361;52.034;20.656;2023-08-06T21:53:24;98142.31;;;15.67;100.00
77299;BME280;66361;52.034;20.656;2023-08-06T21:57:27;98164.47;;;15.59;100.00
77299;BME280;66361;52.034;20.656;2023-08-06T22:01:30;98175.75;;;15.61;100.00
77299;BME280;66361;52.034;20.656;2023-08-06T22:05:33;98177.63;;;15.52;100.00
77299;BME280;66361;52.034;20.656;2023-08-06T22:09:36;98191.63;;;15.46;100.00
77299;BME280;66361;52.034;20.656;2023-08-06T22:13:40;98181.88;;;15.39;100.00
77299;BME280;66361;52.034;20.656;2023-08-06T22:17:43;98180.22;;;15.38;100.00
77299;BME280;66361;52.034;20.656;2023-08-06T22:21:47;98179.38;;;15.29;100.00
77299;BME280;66361;52.034;20.656;2023-08-06T22:25:52;98198.16;;;15.36;100.00
77299;BME280;66361;52.034;20.656;2023-08-06T22:29:57;98191.84;;;15.29;100.00
77299;BME280;66361;52.034;20.656;2023-08-06T22:39:16;98201.16;;;15.25;100.00
77299;BME280;66361;52.034;20.656;2023-08-06T22:43:20;98208.38;;;15.16;100.00
77299;BME280;66361;52.034;20.656;2023-08-06T22:47:24;98202.84;;;15.18;100.00
77299;BME280;66361;52.034;20.656;2023-08-06T22:51:27;98210.19;;;15.16;100.00
77299;BME280;66361;52.034;20.656;2023-08-06T22:55:30;98218.03;;;15.09;100.00
77299;BME280;66361;52.034;20.656;2023-08-06T22:59:38;98226.38;;;14.98;100.00
77299;BME280;66361;52.034;20.656;2023-08-06T23:03:44;98231.50;;;14.99;100.00
77299;BME280;66361;52.034;20.656;2023-08-06T23:07:49;98236.31;;;14.96;100.00
77299;BME280;66361;52.034;20.656;2023-08-06T23:11:52;98247.63;;;14.98;100.00
